Little Egg Harbor, New Jersey
Current Conditions -  °F | °C
As of 3:54 PM on Saturday 20 Dec 2014 (Local Time) from KACY Reporting Station
Overcast Overcast  
Wind Chill: 28°   Ceiling: 2900
Heat Index: 34°   Visibility: 10mi
Dew Point: 22°   Wind: 7mph
Humidity: 61%   Direction: 340°NNW
Pressure: 30.26"   Gusts: NA
Location:  39.6187°N, 74.3847°W
Report Text: KACY 202054Z 34006KT 10SM OVC029 01/M06 A3026 RMK AO2 SLP246 T00111056 55008
Loading
Personal Weather Stations






























Interactive Weather Map New forecast layout! Learn more

10-Day Weather Forecast

Advertisements
Track Severe Weather on mobile